createdAt,value
2022-08-04T00:04:39.321Z,19.40
2022-08-04T00:09:46.910Z,19.30
2022-08-04T00:14:50.946Z,19.20
2022-08-04T00:19:58.454Z,19.20
2022-08-04T00:25:03.372Z,19.10
2022-08-04T00:30:07.009Z,19.10
2022-08-04T00:35:14.742Z,19.10
2022-08-04T00:40:32.981Z,19.00
2022-08-04T00:46:15.452Z,18.90
2022-08-04T00:51:31.898Z,18.90
2022-08-04T00:57:02.995Z,18.80
2022-08-04T01:02:27.487Z,18.80
2022-08-04T01:07:32.401Z,18.70
2022-08-04T01:12:49.230Z,18.60
2022-08-04T01:18:14.602Z,18.70
2022-08-04T01:23:45.879Z,18.60
2022-08-04T01:29:00.487Z,18.60
2022-08-04T01:34:06.486Z,18.60
2022-08-04T01:39:26.996Z,18.60
2022-08-04T01:44:30.948Z,18.60
2022-08-04T01:49:40.592Z,18.60
2022-08-04T01:54:43.386Z,18.50
2022-08-04T01:59:47.471Z,18.50
2022-08-04T02:04:49.291Z,18.50
2022-08-04T02:10:05.259Z,18.40
2022-08-04T02:15:30.306Z,18.30
2022-08-04T02:20:39.000Z,18.30
2022-08-04T02:25:47.620Z,18.30
2022-08-04T02:31:16.398Z,18.30
2022-08-04T02:36:27.134Z,18.40
2022-08-04T02:41:30.799Z,18.30
2022-08-04T02:46:34.608Z,18.30
2022-08-04T02:51:49.905Z,18.40
2022-08-04T02:56:53.639Z,18.40
2022-08-04T03:01:58.226Z,18.30
2022-08-04T03:07:19.014Z,18.30
2022-08-04T03:12:46.006Z,18.20
2022-08-04T03:18:16.042Z,18.20
2022-08-04T03:23:44.154Z,18.20
2022-08-04T03:29:10.255Z,18.20
2022-08-04T03:34:44.751Z,18.30
2022-08-04T03:40:37.087Z,18.30
2022-08-04T03:46:08.534Z,18.30
2022-08-04T03:51:53.361Z,18.40
2022-08-04T03:57:08.550Z,18.40
2022-08-04T04:02:35.196Z,18.30
2022-08-04T04:07:59.907Z,18.10
2022-08-04T04:13:22.211Z,18.10
2022-08-04T04:18:35.883Z,18.10
2022-08-04T04:24:01.091Z,18.00
2022-08-04T04:29:28.517Z,18.00
2022-08-04T04:35:00.486Z,18.00
2022-08-04T04:40:05.127Z,18.00
2022-08-04T04:45:21.858Z,18.00
2022-08-04T04:50:38.867Z,18.00
2022-08-04T04:55:48.433Z,17.90
2022-08-04T05:00:57.315Z,17.80
2022-08-04T05:06:19.870Z,17.90
2022-08-04T05:11:33.622Z,18.10
2022-08-04T05:16:40.415Z,18.40
2022-08-04T05:21:49.986Z,18.60
2022-08-04T05:27:05.734Z,18.80
2022-08-04T05:32:14.870Z,19.30
2022-08-04T05:37:20.655Z,19.80
2022-08-04T05:42:23.362Z,20.30
2022-08-04T05:47:26.077Z,21.00
2022-08-04T05:52:28.376Z,22.30
2022-08-04T05:57:31.387Z,23.20
2022-08-04T06:02:34.291Z,24.20
2022-08-04T06:07:36.113Z,24.70
2022-08-04T06:13:04.747Z,25.00
2022-08-04T06:18:35.333Z,24.90
2022-08-04T06:23:33.112Z,24.70
2022-08-04T06:28:36.064Z,24.40
2022-08-04T06:33:54.641Z,24.40
2022-08-04T06:39:01.568Z,24.40
2022-08-04T06:44:07.396Z,24.40
2022-08-04T06:49:10.287Z,24.50
2022-08-04T06:54:12.127Z,24.70
2022-08-04T06:59:16.346Z,25.00
2022-08-04T07:04:19.369Z,25.30
2022-08-04T07:09:21.406Z,25.50
2022-08-04T07:14:23.971Z,25.80
2022-08-04T07:19:25.744Z,26.20
2022-08-04T07:24:32.403Z,26.50
2022-08-04T07:29:37.570Z,26.80
2022-08-04T07:34:40.699Z,27.00
2022-08-04T07:39:48.362Z,27.30
2022-08-04T07:44:50.534Z,27.50
2022-08-04T07:49:56.852Z,27.70
2022-08-04T07:55:00.363Z,27.90
2022-08-04T08:00:03.911Z,28.10
2022-08-04T08:05:17.072Z,28.40
2022-08-04T08:10:18.927Z,28.80
2022-08-04T08:15:21.426Z,29.00
2022-08-04T08:20:29.913Z,29.10
2022-08-04T08:25:33.437Z,29.20
2022-08-04T08:30:36.181Z,29.30
2022-08-04T08:36:06.262Z,29.50
2022-08-04T08:41:21.139Z,29.50
2022-08-04T08:46:49.431Z,29.60
2022-08-04T08:52:14.418Z,29.80
2022-08-04T08:57:59.895Z,29.90
2022-08-04T09:03:32.684Z,30.00
2022-08-04T09:08:53.289Z,30.20
2022-08-04T09:14:08.882Z,30.20
2022-08-04T09:19:38.115Z,30.40
2022-08-04T09:25:02.807Z,30.50
2022-08-04T09:30:11.442Z,30.60
2022-08-04T09:35:26.062Z,30.80
2022-08-04T09:40:53.202Z,30.90
2022-08-04T09:46:10.951Z,31.00
2022-08-04T09:51:57.165Z,31.20
2022-08-04T09:57:29.747Z,31.40
2022-08-04T10:02:36.708Z,31.40
2022-08-04T10:08:16.249Z,31.40
2022-08-04T10:13:23.622Z,31.50
2022-08-04T10:19:07.765Z,31.70
2022-08-04T10:24:32.269Z,31.80
2022-08-04T10:29:45.435Z,31.80
2022-08-04T10:35:10.083Z,31.90
2022-08-04T10:40:40.779Z,32.00
2022-08-04T10:45:47.662Z,32.10
2022-08-04T10:51:21.699Z,32.00
2022-08-04T10:56:39.247Z,32.20
2022-08-04T11:02:01.437Z,32.20
2022-08-04T11:07:05.273Z,32.30
2022-08-04T11:12:19.537Z,32.40
2022-08-04T11:17:42.445Z,32.50
2022-08-04T11:23:02.335Z,32.40
2022-08-04T11:28:15.578Z,32.30
2022-08-04T11:34:01.763Z,32.50
2022-08-04T11:39:33.062Z,32.50
2022-08-04T11:44:48.375Z,32.40
2022-08-04T11:49:58.782Z,32.50
2022-08-04T11:55:06.434Z,32.60
2022-08-04T12:00:13.224Z,32.70
2022-08-04T12:05:23.462Z,32.60
2022-08-04T12:11:05.738Z,32.60
2022-08-04T12:16:30.470Z,32.70
2022-08-04T12:21:43.501Z,32.70
2022-08-04T12:27:07.239Z,32.90
2022-08-04T12:32:20.935Z,33.00
2022-08-04T12:37:49.156Z,32.90
2022-08-04T12:43:19.169Z,33.00
2022-08-04T12:48:23.994Z,32.90
2022-08-04T12:53:51.420Z,32.90
2022-08-04T12:59:01.770Z,32.90
2022-08-04T13:04:12.980Z,32.90
2022-08-04T13:09:19.245Z,33.00
2022-08-04T13:14:27.659Z,33.00
2022-08-04T13:19:31.737Z,33.00
2022-08-04T13:25:11.410Z,33.00
2022-08-04T13:30:06.780Z,33.10
2022-08-04T13:35:12.407Z,33.10
2022-08-04T13:40:16.200Z,33.10
2022-08-04T13:45:23.043Z,33.00
2022-08-04T13:50:30.260Z,33.10
2022-08-04T13:55:34.569Z,32.90
2022-08-04T14:00:47.416Z,32.90
2022-08-04T14:06:14.698Z,32.80
2022-08-04T14:12:06.700Z,32.70
2022-08-04T14:17:01.831Z,32.70
2022-08-04T14:22:03.813Z,32.50
2022-08-04T14:27:05.889Z,32.40
2022-08-04T14:32:12.759Z,32.30
2022-08-04T14:37:27.519Z,32.10
2022-08-04T14:42:54.577Z,32.00
2022-08-04T14:47:58.813Z,32.00
2022-08-04T14:53:19.728Z,31.80
2022-08-04T14:58:38.988Z,31.70
2022-08-04T15:03:50.317Z,31.40
2022-08-04T15:08:58.580Z,31.30
2022-08-04T15:14:01.361Z,31.20
2022-08-04T15:19:03.365Z,31.10
2022-08-04T15:24:05.789Z,30.90
2022-08-04T15:29:16.634Z,30.80
2022-08-04T15:34:18.810Z,30.60
2022-08-04T15:39:58.936Z,30.30
2022-08-04T15:45:17.745Z,30.20
2022-08-04T15:50:28.714Z,29.90
2022-08-04T15:55:39.903Z,29.70
2022-08-04T16:00:48.074Z,29.50
2022-08-04T16:05:49.882Z,29.50
2022-08-04T16:10:52.487Z,29.40
2022-08-04T16:16:03.217Z,29.10
2022-08-04T16:21:17.934Z,29.10
2022-08-04T16:26:38.236Z,29.00
2022-08-04T16:32:13.681Z,28.80
2022-08-04T16:37:17.865Z,28.70
2022-08-04T16:42:30.506Z,28.50
2022-08-04T16:47:47.468Z,28.40
2022-08-04T16:52:51.682Z,28.20
2022-08-04T16:57:55.735Z,28.10
2022-08-04T17:02:57.705Z,27.90
2022-08-04T17:08:28.593Z,27.80
2022-08-04T17:14:04.375Z,27.70
2022-08-04T17:19:24.039Z,27.60
2022-08-04T17:24:32.563Z,27.40
2022-08-04T17:29:43.109Z,27.20
2022-08-04T17:34:51.039Z,27.00
2022-08-04T17:39:53.240Z,26.70
2022-08-04T17:45:48.723Z,26.40
2022-08-04T17:50:36.000Z,26.20
2022-08-04T17:55:47.594Z,26.00
2022-08-04T18:01:23.249Z,25.70
2022-08-04T18:06:25.627Z,25.40
2022-08-04T18:11:29.499Z,25.30
2022-08-04T18:16:44.969Z,25.20
2022-08-04T18:21:59.773Z,25.10
2022-08-04T18:27:06.685Z,25.10
2022-08-04T18:32:09.605Z,25.00
2022-08-04T18:38:03.499Z,24.90
2022-08-04T18:42:37.391Z,24.70
2022-08-04T18:47:58.311Z,24.50
2022-08-04T18:53:01.159Z,24.40
2022-08-04T18:58:07.394Z,24.20
2022-08-04T19:03:16.236Z,24.10
2022-08-04T19:08:34.361Z,24.00
2022-08-04T19:13:37.136Z,23.80
2022-08-04T19:18:39.225Z,23.80
2022-08-04T19:24:23.457Z,23.80
2022-08-04T19:29:03.189Z,23.70
2022-08-04T19:34:07.293Z,23.50
2022-08-04T19:39:11.779Z,23.50
2022-08-04T19:44:13.928Z,23.40
2022-08-04T19:50:02.812Z,23.40
2022-08-04T19:54:40.902Z,23.30
2022-08-04T19:59:48.418Z,23.20
2022-08-04T20:04:50.303Z,23.10
2022-08-04T20:09:53.905Z,23.00
2022-08-04T20:14:56.315Z,22.80
2022-08-04T20:19:58.095Z,22.70
2022-08-04T20:25:18.062Z,22.60
2022-08-04T20:30:21.846Z,22.50
2022-08-04T20:35:26.869Z,22.50
2022-08-04T20:40:30.379Z,22.50
2022-08-04T20:45:56.442Z,22.40
2022-08-04T20:50:54.175Z,22.30
2022-08-04T20:55:56.397Z,22.20
2022-08-04T21:00:58.358Z,22.10
2022-08-04T21:06:00.276Z,22.10
2022-08-04T21:11:03.482Z,22.10
2022-08-04T21:16:10.062Z,22.00
2022-08-04T21:21:35.480Z,22.00
2022-08-04T21:26:37.730Z,22.00
2022-08-04T21:31:51.065Z,21.90
2022-08-04T21:36:55.406Z,21.90
2022-08-04T21:42:29.799Z,21.90
2022-08-04T21:52:40.704Z,21.70
2022-08-04T21:57:42.638Z,21.50
2022-08-04T22:02:44.554Z,21.50
2022-08-04T22:07:50.180Z,21.40
2022-08-04T22:12:53.354Z,21.30
2022-08-04T22:17:55.114Z,21.20
2022-08-04T22:23:03.457Z,21.10
2022-08-04T22:28:08.304Z,20.90
2022-08-04T22:33:10.419Z,20.90
2022-08-04T22:38:24.081Z,20.90
2022-08-04T22:43:36.909Z,21.00
2022-08-04T22:48:39.862Z,21.00
2022-08-04T22:53:48.890Z,21.00
2022-08-04T22:58:51.439Z,20.90
2022-08-04T23:03:55.862Z,20.90
2022-08-04T23:08:57.943Z,20.70
2022-08-04T23:14:01.214Z,20.60
2022-08-04T23:19:09.457Z,20.50
2022-08-04T23:24:11.492Z,20.50
2022-08-04T23:29:15.346Z,20.60
2022-08-04T23:34:18.912Z,20.50
2022-08-04T23:39:20.930Z,20.50
2022-08-04T23:44:26.891Z,20.40
2022-08-04T23:49:44.453Z,20.50
2022-08-04T23:54:46.945Z,20.40
2022-08-04T23:59:54.414Z,20.30
